createdAt,value
2018-10-03T00:01:26.122Z,11.10
2018-10-03T00:03:54.523Z,11.10
2018-10-03T00:06:22.896Z,11.10
2018-10-03T00:08:51.343Z,11.10
2018-10-03T00:11:19.752Z,11.00
2018-10-03T00:13:48.132Z,10.90
2018-10-03T00:16:16.523Z,10.80
2018-10-03T00:18:44.952Z,10.80
2018-10-03T00:21:13.335Z,10.80
2018-10-03T00:23:41.703Z,10.90
2018-10-03T00:26:10.092Z,10.80
2018-10-03T00:28:38.497Z,10.80
2018-10-03T00:31:07.228Z,10.80
2018-10-03T00:33:35.636Z,10.80
2018-10-03T00:36:04.052Z,10.80
2018-10-03T00:38:32.440Z,10.90
2018-10-03T00:41:00.826Z,10.90
2018-10-03T00:43:29.284Z,10.90
2018-10-03T00:45:57.707Z,11.00
2018-10-03T00:48:26.116Z,11.00
2018-10-03T00:50:54.485Z,11.00
2018-10-03T00:53:22.913Z,11.00
2018-10-03T00:55:51.339Z,11.00
2018-10-03T00:58:19.722Z,10.90
2018-10-03T01:00:48.110Z,10.90
2018-10-03T01:03:16.582Z,10.90
2018-10-03T01:05:44.991Z,10.90
2018-10-03T01:08:13.392Z,10.90
2018-10-03T01:10:41.828Z,10.90
2018-10-03T01:13:10.208Z,10.90
2018-10-03T01:15:38.578Z,10.90
2018-10-03T01:18:06.956Z,10.90
2018-10-03T01:20:35.357Z,10.90
2018-10-03T01:23:03.729Z,10.80
2018-10-03T01:25:32.120Z,10.80
2018-10-03T01:28:03.659Z,10.80
2018-10-03T01:30:32.113Z,10.70
2018-10-03T01:33:00.482Z,10.80
2018-10-03T01:35:28.892Z,10.70
2018-10-03T01:37:57.270Z,10.60
2018-10-03T01:40:25.665Z,10.60
2018-10-03T01:42:54.031Z,10.60
2018-10-03T01:45:22.434Z,10.60
2018-10-03T01:47:50.960Z,10.50
2018-10-03T01:50:19.343Z,10.50
2018-10-03T01:52:47.815Z,10.50
2018-10-03T01:55:16.202Z,10.40
2018-10-03T01:57:44.644Z,10.40
2018-10-03T02:00:12.981Z,10.40
2018-10-03T02:02:41.384Z,10.30
2018-10-03T02:05:09.755Z,10.30
2018-10-03T02:07:38.105Z,10.20
2018-10-03T02:10:06.485Z,10.30
2018-10-03T02:12:34.878Z,10.30
2018-10-03T02:15:03.330Z,10.30
2018-10-03T02:17:31.725Z,10.20
2018-10-03T02:20:00.088Z,10.20
2018-10-03T02:22:28.494Z,10.10
2018-10-03T02:24:56.917Z,10.10
2018-10-03T02:27:25.368Z,10.10
2018-10-03T02:29:53.738Z,10.00
2018-10-03T02:32:22.202Z,10.00
2018-10-03T02:34:50.581Z,10.00
2018-10-03T02:37:19.019Z,9.90
2018-10-03T02:39:47.431Z,9.90
2018-10-03T02:42:15.864Z,9.90
2018-10-03T02:44:44.231Z,10.00
2018-10-03T02:47:12.619Z,9.90
2018-10-03T02:49:40.976Z,10.00
2018-10-03T02:52:09.428Z,9.90
2018-10-03T02:54:37.786Z,9.80
2018-10-03T02:57:06.385Z,9.90
2018-10-03T02:59:34.763Z,9.80
2018-10-03T03:02:03.166Z,9.80
2018-10-03T03:04:31.604Z,9.90
2018-10-03T03:07:00.003Z,9.90
2018-10-03T03:09:28.431Z,10.10
2018-10-03T03:11:56.849Z,10.10
2018-10-03T03:14:25.260Z,10.20
2018-10-03T03:16:53.668Z,10.30
2018-10-03T03:19:22.078Z,10.40
2018-10-03T03:21:50.489Z,10.40
2018-10-03T03:24:18.896Z,10.50
2018-10-03T03:26:47.346Z,10.50
2018-10-03T03:29:15.748Z,10.50
2018-10-03T03:31:44.194Z,10.50
2018-10-03T03:34:12.614Z,10.50
2018-10-03T03:36:41.120Z,10.50
2018-10-03T03:39:09.958Z,10.60
2018-10-03T03:41:38.643Z,10.60
2018-10-03T03:44:07.077Z,10.60
2018-10-03T03:46:35.451Z,10.50
2018-10-03T03:49:03.834Z,10.40
2018-10-03T03:51:32.243Z,10.40
2018-10-03T03:54:00.794Z,10.30
2018-10-03T03:56:29.212Z,10.30
2018-10-03T03:58:57.593Z,10.20
2018-10-03T04:01:25.971Z,10.10
2018-10-03T04:03:54.339Z,10.10
2018-10-03T04:06:22.710Z,10.10
2018-10-03T04:08:51.156Z,10.00
2018-10-03T04:11:19.581Z,10.00
2018-10-03T04:13:47.967Z,10.00
2018-10-03T04:16:16.327Z,9.90
2018-10-03T04:18:44.727Z,9.90
2018-10-03T04:21:13.101Z,10.00
2018-10-03T04:23:41.484Z,10.10
2018-10-03T04:26:09.891Z,10.10
2018-10-03T04:28:38.256Z,10.20
2018-10-03T04:31:06.683Z,10.30
2018-10-03T04:33:35.067Z,10.30
2018-10-03T04:36:03.455Z,10.30
2018-10-03T04:38:31.880Z,10.30
2018-10-03T04:41:00.287Z,10.40
2018-10-03T04:43:28.673Z,10.40
2018-10-03T04:45:57.056Z,10.50
2018-10-03T04:48:25.580Z,10.50
2018-10-03T04:50:53.957Z,10.50
2018-10-03T04:53:22.399Z,10.50
2018-10-03T04:55:50.809Z,10.50
2018-10-03T04:58:19.199Z,10.50
2018-10-03T05:00:47.562Z,10.50
2018-10-03T05:03:16.004Z,10.60
2018-10-03T05:05:44.420Z,10.60
2018-10-03T05:08:12.806Z,10.60
2018-10-03T05:10:41.164Z,10.60
2018-10-03T05:13:09.517Z,10.60
2018-10-03T05:15:37.917Z,10.70
2018-10-03T05:18:06.289Z,10.70
2018-10-03T05:20:34.689Z,10.70
2018-10-03T05:23:03.043Z,10.70
2018-10-03T05:25:31.412Z,10.70
2018-10-03T05:27:59.806Z,10.80
2018-10-03T05:30:28.136Z,10.80
2018-10-03T05:32:56.524Z,10.80
2018-10-03T05:35:24.896Z,10.80
2018-10-03T05:37:53.323Z,10.90
2018-10-03T05:40:21.988Z,10.90
2018-10-03T05:42:50.385Z,11.00
2018-10-03T05:45:18.772Z,11.00
2018-10-03T05:47:47.142Z,11.00
2018-10-03T05:50:15.536Z,11.10
2018-10-03T05:52:43.973Z,11.10
2018-10-03T05:55:12.404Z,11.10
2018-10-03T05:57:40.899Z,11.20
2018-10-03T06:00:09.390Z,11.20
2018-10-03T06:02:38.076Z,11.20
2018-10-03T06:05:06.585Z,11.20
2018-10-03T06:07:34.992Z,11.30
2018-10-03T06:10:03.431Z,11.30
2018-10-03T06:12:31.792Z,11.30
2018-10-03T06:15:00.213Z,11.30
2018-10-03T06:17:28.607Z,11.30
2018-10-03T06:19:57.029Z,11.10
2018-10-03T06:22:25.361Z,11.10
2018-10-03T06:24:53.707Z,10.90
2018-10-03T06:27:22.074Z,10.90
2018-10-03T06:29:50.603Z,10.90
2018-10-03T06:32:18.983Z,10.90
2018-10-03T06:34:47.363Z,10.90
2018-10-03T06:37:15.993Z,10.90
2018-10-03T06:39:44.456Z,11.10
2018-10-03T06:42:12.849Z,11.10
2018-10-03T06:44:41.379Z,11.20
2018-10-03T06:47:09.780Z,11.30
2018-10-03T06:49:38.097Z,11.40
2018-10-03T06:52:06.599Z,11.60
2018-10-03T06:54:35.159Z,11.70
2018-10-03T06:57:03.622Z,11.80
2018-10-03T06:59:31.997Z,11.90
2018-10-03T07:02:00.475Z,13.50
2018-10-03T07:04:28.924Z,14.80
2018-10-03T07:06:57.375Z,13.80
2018-10-03T07:09:25.799Z,13.00
2018-10-03T07:11:54.265Z,12.80
2018-10-03T07:14:22.659Z,12.70
2018-10-03T07:16:51.075Z,12.70
2018-10-03T07:19:19.468Z,12.80
2018-10-03T07:21:47.860Z,12.70
2018-10-03T07:24:16.247Z,12.60
2018-10-03T07:26:44.680Z,14.30
2018-10-03T07:29:13.109Z,15.80
2018-10-03T07:31:41.513Z,16.10
2018-10-03T07:34:09.909Z,16.50
2018-10-03T07:36:38.476Z,17.10
2018-10-03T07:39:08.098Z,17.60
2018-10-03T07:41:36.486Z,17.60
2018-10-03T07:44:05.305Z,17.70
2018-10-03T07:46:33.721Z,17.50
2018-10-03T07:49:02.205Z,18.00
2018-10-03T07:51:30.781Z,18.60
2018-10-03T07:53:59.221Z,19.00
2018-10-03T07:56:27.666Z,18.90
2018-10-03T07:58:56.120Z,18.00
2018-10-03T08:01:24.484Z,17.80
2018-10-03T08:03:52.941Z,17.90
2018-10-03T08:06:21.381Z,17.80
2018-10-03T08:08:49.775Z,18.00
2018-10-03T08:11:18.152Z,17.90
2018-10-03T08:13:46.579Z,19.30
2018-10-03T08:16:14.975Z,19.10
2018-10-03T08:18:43.379Z,18.40
2018-10-03T08:21:11.844Z,18.50
2018-10-03T08:23:40.261Z,18.30
2018-10-03T08:26:08.618Z,17.00
2018-10-03T08:28:37.255Z,16.60
2018-10-03T08:31:05.653Z,16.70
2018-10-03T08:33:34.028Z,16.20
2018-10-03T08:36:02.675Z,15.70
2018-10-03T08:38:31.427Z,15.40
2018-10-03T08:40:59.788Z,15.40
2018-10-03T08:43:28.255Z,15.10
2018-10-03T08:45:58.578Z,15.00
2018-10-03T08:48:26.971Z,14.90
2018-10-03T08:50:55.402Z,14.70
2018-10-03T08:53:23.997Z,14.40
2018-10-03T08:55:52.386Z,14.40
2018-10-03T08:58:20.864Z,14.60
2018-10-03T09:00:49.281Z,15.00
2018-10-03T09:03:17.803Z,15.00
2018-10-03T09:05:47.932Z,15.00
2018-10-03T09:08:19.096Z,15.30
2018-10-03T09:10:48.280Z,15.60
2018-10-03T09:13:16.648Z,15.20
2018-10-03T09:15:45.021Z,14.80
2018-10-03T09:18:13.408Z,14.80
2018-10-03T09:20:41.843Z,14.60
2018-10-03T09:23:10.218Z,14.80
2018-10-03T09:25:38.670Z,15.00
2018-10-03T09:28:07.090Z,15.40
2018-10-03T09:30:35.563Z,15.20
2018-10-03T09:33:03.994Z,15.00
2018-10-03T09:35:32.437Z,14.80
2018-10-03T09:38:01.075Z,14.70
2018-10-03T09:40:29.522Z,14.60
2018-10-03T09:45:26.020Z,14.90
2018-10-03T09:47:54.461Z,14.10
2018-10-03T09:50:22.852Z,14.80
2018-10-03T09:52:51.261Z,14.80
2018-10-03T09:55:19.713Z,14.90
2018-10-03T09:57:48.151Z,15.00
2018-10-03T10:02:23.272Z,14.90
2018-10-03T10:04:51.649Z,14.90
2018-10-03T10:07:20.143Z,15.00
2018-10-03T10:09:48.583Z,14.90
2018-10-03T10:12:17.133Z,15.10
2018-10-03T10:14:45.553Z,15.40
2018-10-03T10:17:14.049Z,15.50
2018-10-03T10:19:42.499Z,15.50
2018-10-03T10:22:10.887Z,15.60
2018-10-03T10:24:39.263Z,15.30
2018-10-03T10:27:07.947Z,15.10
2018-10-03T10:29:36.417Z,14.50
2018-10-03T10:32:04.860Z,14.90
2018-10-03T10:34:33.253Z,14.90
2018-10-03T10:37:01.703Z,15.00
2018-10-03T10:39:30.212Z,15.00
2018-10-03T10:41:58.661Z,15.10
2018-10-03T10:44:27.063Z,14.70
2018-10-03T10:46:55.501Z,14.80
2018-10-03T10:49:24.367Z,14.70
2018-10-03T10:51:52.872Z,14.60
2018-10-03T10:54:21.273Z,14.50
2018-10-03T10:56:49.711Z,14.40
2018-10-03T10:59:18.221Z,14.40
2018-10-03T11:01:46.724Z,14.40
2018-10-03T11:04:15.158Z,14.20
2018-10-03T11:06:43.770Z,14.00
2018-10-03T11:09:12.122Z,13.50
2018-10-03T11:11:40.577Z,13.50
2018-10-03T11:14:11.038Z,13.30
2018-10-03T11:16:39.569Z,13.10
2018-10-03T11:19:08.096Z,13.30
2018-10-03T11:21:36.547Z,13.20
2018-10-03T11:24:05.251Z,13.20
2018-10-03T11:26:33.666Z,13.50
2018-10-03T11:29:02.088Z,13.50
2018-10-03T11:31:30.472Z,13.70
2018-10-03T11:33:58.860Z,14.80
2018-10-03T11:36:27.429Z,15.20
2018-10-03T11:38:55.858Z,15.70
2018-10-03T11:41:24.408Z,16.40
2018-10-03T11:43:53.105Z,16.00
2018-10-03T11:46:21.579Z,16.60
2018-10-03T11:48:50.002Z,16.70
2018-10-03T11:51:18.503Z,17.20
2018-10-03T11:53:49.409Z,16.80
2018-10-03T11:56:17.826Z,16.50
2018-10-03T11:58:46.263Z,15.90
2018-10-03T12:01:14.688Z,15.30
2018-10-03T12:03:43.199Z,14.80
2018-10-03T12:06:11.621Z,15.80
2018-10-03T12:08:40.076Z,15.20
2018-10-03T12:11:08.512Z,14.70
2018-10-03T12:13:36.950Z,14.30
2018-10-03T12:16:05.406Z,14.00
2018-10-03T12:18:33.854Z,13.90
2018-10-03T12:21:02.279Z,13.60
2018-10-03T12:23:30.705Z,13.80
2018-10-03T12:25:59.152Z,14.80
2018-10-03T12:28:27.553Z,15.70
2018-10-03T12:30:56.090Z,16.30
2018-10-03T12:33:24.564Z,16.60
2018-10-03T12:35:53.038Z,16.20
2018-10-03T12:38:21.512Z,15.90
2018-10-03T12:40:50.003Z,15.00
2018-10-03T12:43:18.419Z,14.80
2018-10-03T12:45:46.917Z,15.20
2018-10-03T12:48:16.359Z,16.20
2018-10-03T12:50:44.781Z,16.70
2018-10-03T12:53:13.279Z,17.00
2018-10-03T12:55:41.728Z,16.80
2018-10-03T12:58:10.135Z,17.10
2018-10-03T13:00:38.547Z,17.10
2018-10-03T13:03:07.032Z,17.60
2018-10-03T13:05:35.427Z,17.50
2018-10-03T13:08:03.859Z,17.10
2018-10-03T13:10:32.945Z,17.00
2018-10-03T13:13:01.667Z,17.60
2018-10-03T13:15:30.075Z,18.10
2018-10-03T13:17:59.139Z,17.20
2018-10-03T13:20:27.571Z,16.30
2018-10-03T13:22:55.937Z,15.60
2018-10-03T13:25:24.484Z,15.30
2018-10-03T13:27:52.884Z,15.60
2018-10-03T13:30:21.313Z,16.20
2018-10-03T13:32:49.728Z,15.90
2018-10-03T13:35:18.105Z,15.70
2018-10-03T13:37:46.509Z,15.70
2018-10-03T13:40:14.892Z,15.50
2018-10-03T13:42:43.322Z,15.30
2018-10-03T13:45:11.732Z,15.40
2018-10-03T13:47:40.172Z,15.20
2018-10-03T13:50:08.649Z,15.20
2018-10-03T13:52:37.009Z,15.10
2018-10-03T13:55:05.433Z,15.10
2018-10-03T13:57:33.906Z,15.00
2018-10-03T14:00:02.340Z,15.20
2018-10-03T14:02:30.807Z,15.80
2018-10-03T14:04:59.427Z,15.80
2018-10-03T14:07:27.827Z,15.80
2018-10-03T14:09:56.467Z,15.40
2018-10-03T14:12:24.837Z,15.50
2018-10-03T14:14:53.247Z,15.40
2018-10-03T14:17:21.612Z,15.10
2018-10-03T14:19:50.031Z,15.00
2018-10-03T14:22:18.596Z,14.90
2018-10-03T14:24:47.074Z,14.90
2018-10-03T14:27:15.477Z,14.90
2018-10-03T14:29:43.958Z,15.00
2018-10-03T14:32:12.757Z,15.20
2018-10-03T14:34:41.211Z,15.20
2018-10-03T14:37:09.653Z,15.00
2018-10-03T14:39:38.058Z,14.90
2018-10-03T14:42:06.634Z,14.80
2018-10-03T14:44:34.998Z,14.70
2018-10-03T14:47:03.494Z,14.60
2018-10-03T14:49:32.019Z,14.70
2018-10-03T14:52:00.389Z,14.60
2018-10-03T14:54:28.926Z,14.50
2018-10-03T14:56:57.383Z,14.20
2018-10-03T14:59:25.918Z,14.20
2018-10-03T15:01:54.364Z,14.20
2018-10-03T15:04:22.796Z,14.20
2018-10-03T15:06:51.200Z,14.20
2018-10-03T15:09:19.854Z,14.20
2018-10-03T15:11:48.235Z,14.20
2018-10-03T15:14:16.641Z,14.40
2018-10-03T15:16:45.228Z,14.30
2018-10-03T15:19:13.758Z,14.40
2018-10-03T15:21:42.145Z,14.50
2018-10-03T15:24:10.624Z,14.50
2018-10-03T15:26:39.037Z,14.40
2018-10-03T15:29:07.417Z,14.40
2018-10-03T15:31:35.774Z,14.40
2018-10-03T15:34:04.165Z,14.30
2018-10-03T15:36:32.830Z,14.30
2018-10-03T15:39:01.240Z,14.30
2018-10-03T15:41:30.150Z,14.30
2018-10-03T15:43:58.553Z,14.30
2018-10-03T15:46:26.959Z,14.10
2018-10-03T15:48:55.384Z,14.10
2018-10-03T15:51:23.843Z,14.00
2018-10-03T15:53:52.904Z,13.90
2018-10-03T15:56:21.294Z,13.90
2018-10-03T15:58:49.672Z,13.80
2018-10-03T16:01:18.127Z,13.70
2018-10-03T16:03:46.498Z,13.70
2018-10-03T16:06:14.956Z,13.60
2018-10-03T16:08:43.365Z,13.60
2018-10-03T16:11:11.781Z,13.60
2018-10-03T16:13:40.235Z,13.50
2018-10-03T16:16:08.683Z,13.50
2018-10-03T16:18:37.084Z,13.40
2018-10-03T16:21:05.510Z,13.50
2018-10-03T16:23:34.184Z,13.40
2018-10-03T16:26:02.592Z,13.40
2018-10-03T16:28:30.996Z,13.40
2018-10-03T16:30:59.402Z,13.40
2018-10-03T16:33:27.807Z,13.40
2018-10-03T16:35:56.251Z,13.40
2018-10-03T16:38:24.943Z,13.40
2018-10-03T16:40:53.395Z,13.50
2018-10-03T16:43:21.781Z,13.50
2018-10-03T16:45:50.215Z,13.40
2018-10-03T16:48:18.681Z,13.40
2018-10-03T16:50:47.075Z,13.40
2018-10-03T16:53:16.020Z,13.40
2018-10-03T16:55:44.396Z,13.40
2018-10-03T16:58:12.802Z,13.40
2018-10-03T17:00:41.249Z,13.30
2018-10-03T17:03:09.764Z,13.40
2018-10-03T17:05:38.216Z,13.30
2018-10-03T17:08:06.669Z,13.30
2018-10-03T17:10:35.142Z,13.30
2018-10-03T17:13:04.382Z,13.30
2018-10-03T17:15:32.799Z,13.20
2018-10-03T17:18:01.395Z,13.20
2018-10-03T17:20:29.835Z,13.10
2018-10-03T17:22:58.224Z,12.90
2018-10-03T17:25:26.647Z,12.80
2018-10-03T17:27:55.015Z,12.80
2018-10-03T17:30:23.388Z,12.70
2018-10-03T17:32:51.779Z,12.60
2018-10-03T17:35:20.181Z,12.50
2018-10-03T17:37:48.596Z,12.40
2018-10-03T17:40:17.009Z,12.40
2018-10-03T17:42:45.418Z,12.20
2018-10-03T17:45:13.886Z,12.10
2018-10-03T17:47:42.771Z,12.30
2018-10-03T17:50:11.644Z,12.10
2018-10-03T17:52:40.121Z,11.90
2018-10-03T17:55:08.580Z,11.80
2018-10-03T17:57:37.039Z,11.90
2018-10-03T18:00:05.667Z,11.90
2018-10-03T18:02:34.120Z,11.90
2018-10-03T18:05:03.696Z,11.90
2018-10-03T18:07:32.115Z,12.00
2018-10-03T18:10:00.498Z,12.00
2018-10-03T18:12:28.930Z,11.80
2018-10-03T18:14:57.305Z,11.70
2018-10-03T18:17:26.028Z,11.60
2018-10-03T18:19:54.466Z,11.60
2018-10-03T18:22:22.956Z,11.60
2018-10-03T18:24:51.379Z,11.60
2018-10-03T18:27:19.807Z,11.70
2018-10-03T18:29:48.226Z,11.90
2018-10-03T18:32:16.623Z,11.90
2018-10-03T18:34:46.005Z,11.80
2018-10-03T18:37:15.180Z,11.80
2018-10-03T18:39:43.640Z,11.70
2018-10-03T18:42:12.088Z,11.70
2018-10-03T18:44:40.600Z,11.60
2018-10-03T18:47:09.342Z,11.60
2018-10-03T18:49:37.776Z,11.70
2018-10-03T18:52:06.257Z,11.60
2018-10-03T18:54:34.738Z,11.60
2018-10-03T18:57:03.288Z,11.50
2018-10-03T18:59:31.680Z,11.50
2018-10-03T19:02:00.445Z,11.20
2018-10-03T19:04:28.845Z,11.30
2018-10-03T19:06:58.352Z,11.30
2018-10-03T19:09:26.764Z,11.30
2018-10-03T19:11:55.338Z,11.30
2018-10-03T19:14:23.725Z,11.50
2018-10-03T19:16:52.128Z,11.40
2018-10-03T19:19:20.549Z,11.50
2018-10-03T19:21:48.918Z,11.40
2018-10-03T19:24:17.354Z,11.30
2018-10-03T19:26:46.112Z,11.20
2018-10-03T19:29:14.491Z,11.30
2018-10-03T19:31:42.922Z,11.40
2018-10-03T19:34:11.328Z,11.30
2018-10-03T19:36:39.778Z,11.40
2018-10-03T19:39:08.686Z,11.40
2018-10-03T19:41:37.641Z,11.30
2018-10-03T19:44:06.216Z,11.30
2018-10-03T19:46:34.718Z,11.40
2018-10-03T19:49:03.187Z,11.40
2018-10-03T19:51:31.651Z,11.40
2018-10-03T19:54:00.146Z,11.40
2018-10-03T19:56:28.797Z,11.60
2018-10-03T19:58:57.233Z,11.50
2018-10-03T20:01:25.792Z,11.40
2018-10-03T20:03:54.323Z,11.40
2018-10-03T20:06:22.711Z,11.40
2018-10-03T20:08:51.092Z,11.30
2018-10-03T20:11:19.508Z,11.30
2018-10-03T20:13:48.758Z,11.30
2018-10-03T20:16:17.145Z,11.40
2018-10-03T20:18:45.697Z,11.40
2018-10-03T20:21:14.201Z,11.40
2018-10-03T20:23:42.642Z,11.60
2018-10-03T20:26:11.054Z,11.40
2018-10-03T20:28:39.479Z,11.40
2018-10-03T20:31:07.942Z,11.50
2018-10-03T20:33:36.423Z,11.20
2018-10-03T20:36:04.809Z,11.20
2018-10-03T20:38:33.182Z,11.00
2018-10-03T20:41:01.577Z,10.90
2018-10-03T20:43:30.065Z,10.80
2018-10-03T20:45:59.043Z,10.70
2018-10-03T20:48:27.786Z,10.60
2018-10-03T20:50:57.609Z,10.70
2018-10-03T20:53:26.035Z,10.60
2018-10-03T20:55:54.434Z,10.50
2018-10-03T20:58:22.811Z,10.50
2018-10-03T21:00:51.178Z,10.30
2018-10-03T21:03:19.669Z,10.20
2018-10-03T21:05:47.992Z,10.30
2018-10-03T21:08:16.981Z,10.30
2018-10-03T21:10:45.487Z,10.30
2018-10-03T21:13:13.848Z,10.30
2018-10-03T21:15:42.218Z,10.10
2018-10-03T21:18:10.672Z,10.20
2018-10-03T21:20:39.112Z,10.20
2018-10-03T21:23:07.573Z,10.00
2018-10-03T21:25:35.972Z,10.10
2018-10-03T21:28:04.380Z,10.00
2018-10-03T21:30:32.757Z,9.90
2018-10-03T21:33:01.127Z,9.90
2018-10-03T21:35:29.580Z,10.00
2018-10-03T21:37:57.956Z,9.80
2018-10-03T21:40:26.290Z,9.80
2018-10-03T21:42:54.673Z,9.90
2018-10-03T21:45:23.093Z,9.70
2018-10-03T21:47:51.456Z,9.80
2018-10-03T21:50:19.950Z,9.70
2018-10-03T21:52:48.370Z,9.80
2018-10-03T21:55:16.764Z,9.80
2018-10-03T21:57:45.097Z,9.90
2018-10-03T22:00:13.466Z,10.00
2018-10-03T22:02:41.860Z,10.10
2018-10-03T22:05:10.502Z,10.10
2018-10-03T22:07:39.716Z,10.10
2018-10-03T22:10:08.232Z,10.20
2018-10-03T22:12:36.902Z,10.10
2018-10-03T22:15:05.481Z,10.20
2018-10-03T22:17:38.727Z,10.30
2018-10-03T22:20:07.402Z,10.40
2018-10-03T22:22:35.812Z,10.40
2018-10-03T22:25:04.211Z,10.40
2018-10-03T22:27:32.613Z,10.30
2018-10-03T22:30:01.021Z,10.40
2018-10-03T22:32:29.423Z,10.30
2018-10-03T22:34:57.900Z,10.20
2018-10-03T22:37:26.294Z,10.30
2018-10-03T22:39:54.691Z,10.20
2018-10-03T22:42:23.070Z,10.20
2018-10-03T22:44:51.467Z,10.20
2018-10-03T22:47:19.871Z,10.20
2018-10-03T22:49:48.221Z,10.20
2018-10-03T22:52:16.619Z,10.30
2018-10-03T22:54:44.982Z,10.20
2018-10-03T22:57:13.364Z,10.30
2018-10-03T22:59:42.430Z,10.10
2018-10-03T23:02:10.815Z,10.30
2018-10-03T23:04:39.194Z,10.10
2018-10-03T23:07:07.652Z,10.10
2018-10-03T23:09:36.027Z,10.00
2018-10-03T23:12:04.473Z,9.90
2018-10-03T23:14:32.891Z,10.00
2018-10-03T23:17:01.294Z,9.90
2018-10-03T23:19:29.683Z,10.10
2018-10-03T23:21:58.075Z,9.80
2018-10-03T23:24:26.428Z,9.80
2018-10-03T23:26:54.879Z,9.80
2018-10-03T23:29:23.246Z,9.60
2018-10-03T23:31:51.635Z,9.70
2018-10-03T23:34:20.034Z,9.70
2018-10-03T23:36:48.426Z,9.60
2018-10-03T23:39:16.831Z,9.50
2018-10-03T23:41:45.225Z,9.40
2018-10-03T23:44:13.620Z,9.50
2018-10-03T23:46:42.024Z,9.40
2018-10-03T23:49:10.402Z,9.50
2018-10-03T23:51:38.817Z,9.50
2018-10-03T23:54:07.184Z,9.50
2018-10-03T23:56:35.518Z,9.40
2018-10-03T23:59:03.928Z,9.20
